sensor_id;sensor_type;location;lat;lon;timestamp;pressure;altitude;pressure_sealevel;temperature
45701;BMP280;36277;32.852;-116.998;2023-01-13T00:01:10;100510.16;;;26.66
45701;BMP280;36277;32.852;-116.998;2023-01-13T00:03:37;100515.44;;;26.61
45701;BMP280;36277;32.852;-116.998;2023-01-13T00:06:04;100508.41;;;26.58
45701;BMP280;36277;32.852;-116.998;2023-01-13T00:08:31;100506.03;;;26.55
45701;BMP280;36277;32.852;-116.998;2023-01-13T00:10:58;100511.56;;;26.35
45701;BMP280;36277;32.852;-116.998;2023-01-13T00:13:24;100515.06;;;26.01
45701;BMP280;36277;32.852;-116.998;2023-01-13T00:16:02;100520.19;;;25.69
45701;BMP280;36277;32.852;-116.998;2023-01-13T00:18:29;100510.22;;;25.53
45701;BMP280;36277;32.852;-116.998;2023-01-13T00:21:22;100513.16;;;25.17
45701;BMP280;36277;32.852;-116.998;2023-01-13T00:23:51;100515.25;;;25.15
45701;BMP280;36277;32.852;-116.998;2023-01-13T00:26:20;100520.94;;;25.27
45701;BMP280;36277;32.852;-116.998;2023-01-13T00:28:47;100521.88;;;25.34
45701;BMP280;36277;32.852;-116.998;2023-01-13T00:31:16;100528.38;;;25.41
45701;BMP280;36277;32.852;-116.998;2023-01-13T00:33:43;100513.97;;;25.46
45701;BMP280;36277;32.852;-116.998;2023-01-13T00:36:12;100521.28;;;25.53
45701;BMP280;36277;32.852;-116.998;2023-01-13T00:38:40;100524.72;;;25.55
45701;BMP280;36277;32.852;-116.998;2023-01-13T00:41:18;100516.69;;;25.60
45701;BMP280;36277;32.852;-116.998;2023-01-13T00:43:49;100517.56;;;25.61
45701;BMP280;36277;32.852;-116.998;2023-01-13T00:46:18;100523.56;;;25.64
45701;BMP280;36277;32.852;-116.998;2023-01-13T00:48:45;100517.84;;;25.51
45701;BMP280;36277;32.852;-116.998;2023-01-13T00:51:16;100501.97;;;25.25
45701;BMP280;36277;32.852;-116.998;2023-01-13T00:53:46;100502.16;;;25.09
45701;BMP280;36277;32.852;-116.998;2023-01-13T00:56:14;100511.78;;;24.98
45701;BMP280;36277;32.852;-116.998;2023-01-13T00:58:42;100512.25;;;25.02
45701;BMP280;36277;32.852;-116.998;2023-01-13T01:01:12;100508.72;;;25.08
45701;BMP280;36277;32.852;-116.998;2023-01-13T01:03:39;100511.78;;;25.13
45701;BMP280;36277;32.852;-116.998;2023-01-13T01:06:14;100497.91;;;25.21
45701;BMP280;36277;32.852;-116.998;2023-01-13T01:08:41;100507.25;;;25.20
45701;BMP280;36277;32.852;-116.998;2023-01-13T01:11:12;100497.50;;;25.24
45701;BMP280;36277;32.852;-116.998;2023-01-13T01:13:39;100503.69;;;25.26
45701;BMP280;36277;32.852;-116.998;2023-01-13T01:16:12;100501.03;;;25.32
45701;BMP280;36277;32.852;-116.998;2023-01-13T01:18:41;100511.22;;;25.31
45701;BMP280;36277;32.852;-116.998;2023-01-13T01:21:08;100510.84;;;25.34
45701;BMP280;36277;32.852;-116.998;2023-01-13T01:23:36;100500.44;;;25.36
45701;BMP280;36277;32.852;-116.998;2023-01-13T01:26:14;100510.06;;;25.40
45701;BMP280;36277;32.852;-116.998;2023-01-13T01:28:40;100510.44;;;25.37
45701;BMP280;36277;32.852;-116.998;2023-01-13T01:31:29;100516.44;;;25.41
45701;BMP280;36277;32.852;-116.998;2023-01-13T01:34:00;100523.22;;;25.38
45701;BMP280;36277;32.852;-116.998;2023-01-13T01:36:28;100506.63;;;25.38
45701;BMP280;36277;32.852;-116.998;2023-01-13T01:38:59;100506.63;;;25.38
45701;BMP280;36277;32.852;-116.998;2023-01-13T01:41:29;100508.16;;;25.41
45701;BMP280;36277;32.852;-116.998;2023-01-13T01:43:58;100513.69;;;25.41
45701;BMP280;36277;32.852;-116.998;2023-01-13T01:46:41;100513.50;;;25.42
45701;BMP280;36277;32.852;-116.998;2023-01-13T01:52:05;100526.44;;;25.42
45701;BMP280;36277;32.852;-116.998;2023-01-13T01:57:35;100528.38;;;25.41
45701;BMP280;36277;32.852;-116.998;2023-01-13T02:00:04;100534.06;;;25.40
45701;BMP280;36277;32.852;-116.998;2023-01-13T02:02:31;100545.31;;;25.38
45701;BMP280;36277;32.852;-116.998;2023-01-13T02:04:58;100551.53;;;25.40
45701;BMP280;36277;32.852;-116.998;2023-01-13T02:07:31;100558.56;;;25.43
45701;BMP280;36277;32.852;-116.998;2023-01-13T02:10:02;100563.63;;;25.39
45701;BMP280;36277;32.852;-116.998;2023-01-13T02:12:29;100560.84;;;25.39
45701;BMP280;36277;32.852;-116.998;2023-01-13T02:15:09;100572.59;;;25.41
45701;BMP280;36277;32.852;-116.998;2023-01-13T02:20:44;100589.53;;;25.38
45701;BMP280;36277;32.852;-116.998;2023-01-13T02:38:14;100595.53;;;25.27
45701;BMP280;36277;32.852;-116.998;2023-01-13T02:41:03;100595.16;;;25.30
45701;BMP280;36277;32.852;-116.998;2023-01-13T02:43:51;100604.19;;;25.25
45701;BMP280;36277;32.852;-116.998;2023-01-13T02:49:10;100611.44;;;25.26
45701;BMP280;36277;32.852;-116.998;2023-01-13T02:51:40;100610.59;;;25.25
45701;BMP280;36277;32.852;-116.998;2023-01-13T02:54:12;100618.50;;;25.28
45701;BMP280;36277;32.852;-116.998;2023-01-13T02:56:43;100618.00;;;25.25
45701;BMP280;36277;32.852;-116.998;2023-01-13T02:59:11;100624.59;;;25.24
45701;BMP280;36277;32.852;-116.998;2023-01-13T03:01:38;100633.94;;;25.23
45701;BMP280;36277;32.852;-116.998;2023-01-13T03:04:43;100635.63;;;25.24
45701;BMP280;36277;32.852;-116.998;2023-01-13T03:07:19;100642.63;;;25.20
45701;BMP280;36277;32.852;-116.998;2023-01-13T03:09:59;100637.75;;;25.22
45701;BMP280;36277;32.852;-116.998;2023-01-13T03:29:56;100658.63;;;25.02
45701;BMP280;36277;32.852;-116.998;2023-01-13T03:35:14;100665.19;;;25.01
45701;BMP280;36277;32.852;-116.998;2023-01-13T03:37:46;100669.19;;;24.98
45701;BMP280;36277;32.852;-116.998;2023-01-13T03:40:26;100662.78;;;24.98
45701;BMP280;36277;32.852;-116.998;2023-01-13T03:43:00;100663.19;;;24.95
45701;BMP280;36277;32.852;-116.998;2023-01-13T03:45:55;100660.13;;;24.90
45701;BMP280;36277;32.852;-116.998;2023-01-13T03:48:25;100662.91;;;24.90
45701;BMP280;36277;32.852;-116.998;2023-01-13T03:50:56;100655.66;;;24.89
45701;BMP280;36277;32.852;-116.998;2023-01-13T03:53:29;100651.19;;;24.88
45701;BMP280;36277;32.852;-116.998;2023-01-13T03:56:12;100655.81;;;24.87
45701;BMP280;36277;32.852;-116.998;2023-01-13T03:58:44;100659.16;;;24.83
45701;BMP280;36277;32.852;-116.998;2023-01-13T04:01:31;100669.34;;;24.82
45701;BMP280;36277;32.852;-116.998;2023-01-13T04:04:08;100663.69;;;24.76
45701;BMP280;36277;32.852;-116.998;2023-01-13T04:12:44;100669.56;;;24.73
45701;BMP280;36277;32.852;-116.998;2023-01-13T04:15:41;100669.31;;;24.68
45701;BMP280;36277;32.852;-116.998;2023-01-13T04:18:26;100681.03;;;24.70
45701;BMP280;36277;32.852;-116.998;2023-01-13T04:20:55;100680.13;;;24.69
45701;BMP280;36277;32.852;-116.998;2023-01-13T04:23:22;100675.00;;;24.66
45701;BMP280;36277;32.852;-116.998;2023-01-13T04:25:50;100689.47;;;24.68
45701;BMP280;36277;32.852;-116.998;2023-01-13T04:28:17;100691.38;;;24.68
45701;BMP280;36277;32.852;-116.998;2023-01-13T04:30:45;100694.50;;;24.65
45701;BMP280;36277;32.852;-116.998;2023-01-13T04:33:12;100697.06;;;24.66
45701;BMP280;36277;32.852;-116.998;2023-01-13T04:35:39;100695.34;;;24.65
45701;BMP280;36277;32.852;-116.998;2023-01-13T04:38:14;100697.25;;;24.65
45701;BMP280;36277;32.852;-116.998;2023-01-13T04:40:41;100682.13;;;24.61
45701;BMP280;36277;32.852;-116.998;2023-01-13T04:43:08;100688.00;;;24.58
45701;BMP280;36277;32.852;-116.998;2023-01-13T04:45:34;100683.72;;;24.55
45701;BMP280;36277;32.852;-116.998;2023-01-13T04:48:01;100691.31;;;24.53
45701;BMP280;36277;32.852;-116.998;2023-01-13T04:50:27;100699.75;;;24.52
45701;BMP280;36277;32.852;-116.998;2023-01-13T04:52:54;100695.28;;;24.51
45701;BMP280;36277;32.852;-116.998;2023-01-13T04:55:22;100697.38;;;24.49
45701;BMP280;36277;32.852;-116.998;2023-01-13T04:57:49;100688.56;;;24.45
45701;BMP280;36277;32.852;-116.998;2023-01-13T05:00:17;100704.28;;;24.45
45701;BMP280;36277;32.852;-116.998;2023-01-13T05:02:44;100694.28;;;24.44
45701;BMP280;36277;32.852;-116.998;2023-01-13T05:05:10;100691.31;;;24.45
45701;BMP280;36277;32.852;-116.998;2023-01-13T05:07:37;100692.38;;;24.44
45701;BMP280;36277;32.852;-116.998;2023-01-13T05:10:03;100690.66;;;24.43
45701;BMP280;36277;32.852;-116.998;2023-01-13T05:12:30;100686.72;;;24.38
45701;BMP280;36277;32.852;-116.998;2023-01-13T05:15:14;100682.25;;;24.37
45701;BMP280;36277;32.852;-116.998;2023-01-13T05:18:10;100680.06;;;24.32
45701;BMP280;36277;32.852;-116.998;2023-01-13T05:20:36;100686.22;;;24.34
45701;BMP280;36277;32.852;-116.998;2023-01-13T05:23:03;100681.94;;;24.32
45701;BMP280;36277;32.852;-116.998;2023-01-13T05:25:47;100687.81;;;24.29
45701;BMP280;36277;32.852;-116.998;2023-01-13T05:28:14;100688.84;;;24.28
45701;BMP280;36277;32.852;-116.998;2023-01-13T05:30:43;100692.47;;;24.28
45701;BMP280;36277;32.852;-116.998;2023-01-13T05:33:13;100695.59;;;24.25
45701;BMP280;36277;32.852;-116.998;2023-01-13T05:35:40;100696.81;;;24.23
45701;BMP280;36277;32.852;-116.998;2023-01-13T05:38:07;100686.16;;;24.20
45701;BMP280;36277;32.852;-116.998;2023-01-13T05:40:33;100686.31;;;24.18
45701;BMP280;36277;32.852;-116.998;2023-01-13T05:43:20;100694.78;;;24.17
45701;BMP280;36277;32.852;-116.998;2023-01-13T05:46:06;100701.16;;;24.17
45701;BMP280;36277;32.852;-116.998;2023-01-13T05:48:36;100712.91;;;24.12
45701;BMP280;36277;32.852;-116.998;2023-01-13T05:51:04;100710.16;;;24.12
45701;BMP280;36277;32.852;-116.998;2023-01-13T05:53:32;100703.09;;;24.09
45701;BMP280;36277;32.852;-116.998;2023-01-13T05:55:59;100706.06;;;24.08
45701;BMP280;36277;32.852;-116.998;2023-01-13T05:58:28;100710.19;;;24.04
45701;BMP280;36277;32.852;-116.998;2023-01-13T06:01:06;100707.25;;;24.05
45701;BMP280;36277;32.852;-116.998;2023-01-13T06:03:32;100703.47;;;23.98
45701;BMP280;36277;32.852;-116.998;2023-01-13T06:05:59;100700.94;;;23.97
45701;BMP280;36277;32.852;-116.998;2023-01-13T06:08:27;100707.47;;;23.96
45701;BMP280;36277;32.852;-116.998;2023-01-13T06:10:53;100712.16;;;23.95
45701;BMP280;36277;32.852;-116.998;2023-01-13T06:13:20;100711.47;;;23.93
45701;BMP280;36277;32.852;-116.998;2023-01-13T06:15:46;100708.03;;;23.91
45701;BMP280;36277;32.852;-116.998;2023-01-13T06:18:12;100712.16;;;23.87
45701;BMP280;36277;32.852;-116.998;2023-01-13T06:20:39;100711.28;;;23.87
45701;BMP280;36277;32.852;-116.998;2023-01-13T06:23:08;100720.44;;;23.87
45701;BMP280;36277;32.852;-116.998;2023-01-13T06:25:47;100717.00;;;23.85
45701;BMP280;36277;32.852;-116.998;2023-01-13T06:28:14;100724.09;;;23.80
45701;BMP280;36277;32.852;-116.998;2023-01-13T06:30:44;100718.38;;;23.81
45701;BMP280;36277;32.852;-116.998;2023-01-13T06:33:14;100726.84;;;23.80
45701;BMP280;36277;32.852;-116.998;2023-01-13T06:35:45;100725.97;;;23.79
45701;BMP280;36277;32.852;-116.998;2023-01-13T06:38:17;100725.44;;;23.76
45701;BMP280;36277;32.852;-116.998;2023-01-13T06:40:44;100724.75;;;23.74
45701;BMP280;36277;32.852;-116.998;2023-01-13T06:43:10;100716.66;;;23.72
45701;BMP280;36277;32.852;-116.998;2023-01-13T06:45:45;100715.81;;;23.72
45701;BMP280;36277;32.852;-116.998;2023-01-13T06:48:13;100717.03;;;23.69
45701;BMP280;36277;32.852;-116.998;2023-01-13T06:50:39;100712.72;;;23.67
45701;BMP280;36277;32.852;-116.998;2023-01-13T06:53:07;100715.66;;;23.65
45701;BMP280;36277;32.852;-116.998;2023-01-13T06:55:34;100713.94;;;23.64
45701;BMP280;36277;32.852;-116.998;2023-01-13T06:58:00;100710.66;;;23.61
45701;BMP280;36277;32.852;-116.998;2023-01-13T07:00:27;100709.97;;;23.59
45701;BMP280;36277;32.852;-116.998;2023-01-13T07:03:07;100714.28;;;23.61
45701;BMP280;36277;32.852;-116.998;2023-01-13T07:05:33;100725.31;;;23.53
45701;BMP280;36277;32.852;-116.998;2023-01-13T07:08:00;100717.41;;;23.50
45701;BMP280;36277;32.852;-116.998;2023-01-13T07:10:26;100714.66;;;23.50
45701;BMP280;36277;32.852;-116.998;2023-01-13T07:12:52;100704.66;;;23.49
45701;BMP280;36277;32.852;-116.998;2023-01-13T07:15:37;100709.88;;;23.44
45701;BMP280;36277;32.852;-116.998;2023-01-13T07:18:03;100707.13;;;23.44
45701;BMP280;36277;32.852;-116.998;2023-01-13T07:20:30;100709.19;;;23.42
45701;BMP280;36277;32.852;-116.998;2023-01-13T07:22:56;100703.69;;;23.42
45701;BMP280;36277;32.852;-116.998;2023-01-13T07:25:23;100701.06;;;23.41
45701;BMP280;36277;32.852;-116.998;2023-01-13T07:27:49;100696.78;;;23.38
45701;BMP280;36277;32.852;-116.998;2023-01-13T07:30:16;100695.06;;;23.37
45701;BMP280;36277;32.852;-116.998;2023-01-13T07:32:42;100697.13;;;23.35
45701;BMP280;36277;32.852;-116.998;2023-01-13T07:35:08;100694.53;;;23.34
45701;BMP280;36277;32.852;-116.998;2023-01-13T07:37:36;100689.91;;;23.34
45701;BMP280;36277;32.852;-116.998;2023-01-13T07:40:05;100692.81;;;23.33
45701;BMP280;36277;32.852;-116.998;2023-01-13T07:42:31;100685.78;;;23.30
45701;BMP280;36277;32.852;-116.998;2023-01-13T07:45:16;100687.16;;;23.26
45701;BMP280;36277;32.852;-116.998;2023-01-13T07:47:42;100687.16;;;23.26
45701;BMP280;36277;32.852;-116.998;2023-01-13T07:50:09;100680.13;;;23.24
45701;BMP280;36277;32.852;-116.998;2023-01-13T07:52:35;100683.91;;;23.23
45701;BMP280;36277;32.852;-116.998;2023-01-13T07:55:02;100673.06;;;23.21
45701;BMP280;36277;32.852;-116.998;2023-01-13T07:57:28;100683.56;;;23.18
45701;BMP280;36277;32.852;-116.998;2023-01-13T07:59:55;100681.00;;;23.16
45701;BMP280;36277;32.852;-116.998;2023-01-13T08:02:21;100673.09;;;23.13
45701;BMP280;36277;32.852;-116.998;2023-01-13T08:04:47;100673.44;;;23.10
45701;BMP280;36277;32.852;-116.998;2023-01-13T08:07:13;100681.00;;;23.08
45701;BMP280;36277;32.852;-116.998;2023-01-13T08:09:40;100670.16;;;23.07
45701;BMP280;36277;32.852;-116.998;2023-01-13T08:12:06;100671.34;;;23.04
45701;BMP280;36277;32.852;-116.998;2023-01-13T08:14:50;100671.00;;;22.99
45701;BMP280;36277;32.852;-116.998;2023-01-13T08:17:18;100664.78;;;22.98
45701;BMP280;36277;32.852;-116.998;2023-01-13T08:19:45;100666.72;;;22.97
45701;BMP280;36277;32.852;-116.998;2023-01-13T08:22:11;100666.84;;;22.96
45701;BMP280;36277;32.852;-116.998;2023-01-13T08:24:37;100656.88;;;22.95
45701;BMP280;36277;32.852;-116.998;2023-01-13T08:27:03;100663.44;;;22.94
45701;BMP280;36277;32.852;-116.998;2023-01-13T08:29:29;100661.72;;;22.93
45701;BMP280;36277;32.852;-116.998;2023-01-13T08:31:56;100667.25;;;22.93
45701;BMP280;36277;32.852;-116.998;2023-01-13T08:34:22;100658.28;;;22.91
45701;BMP280;36277;32.852;-116.998;2023-01-13T08:36:49;100657.59;;;22.89
45701;BMP280;36277;32.852;-116.998;2023-01-13T08:39:15;100658.63;;;22.88
45701;BMP280;36277;32.852;-116.998;2023-01-13T08:41:42;100659.47;;;22.88
45701;BMP280;36277;32.852;-116.998;2023-01-13T08:44:30;100664.28;;;22.86
45701;BMP280;36277;32.852;-116.998;2023-01-13T08:46:57;100661.03;;;22.83
45701;BMP280;36277;32.852;-116.998;2023-01-13T08:49:24;100666.53;;;22.83
45701;BMP280;36277;32.852;-116.998;2023-01-13T08:51:51;100664.81;;;22.82
45701;BMP280;36277;32.852;-116.998;2023-01-13T08:54:19;100668.94;;;22.78
45701;BMP280;36277;32.852;-116.998;2023-01-13T08:56:46;100661.91;;;22.75
45701;BMP280;36277;32.852;-116.998;2023-01-13T08:59:17;100658.97;;;22.77
45701;BMP280;36277;32.852;-116.998;2023-01-13T09:01:49;100660.69;;;22.70
45701;BMP280;36277;32.852;-116.998;2023-01-13T09:04:19;100660.69;;;22.70
45701;BMP280;36277;32.852;-116.998;2023-01-13T09:06:46;100659.34;;;22.66
45701;BMP280;36277;32.852;-116.998;2023-01-13T09:09:16;100652.44;;;22.62
45701;BMP280;36277;32.852;-116.998;2023-01-13T09:11:44;100656.03;;;22.62
45701;BMP280;36277;32.852;-116.998;2023-01-13T09:14:33;100654.66;;;22.58
45701;BMP280;36277;32.852;-116.998;2023-01-13T09:17:00;100655.03;;;22.55
45701;BMP280;36277;32.852;-116.998;2023-01-13T09:19:27;100655.19;;;22.54
45701;BMP280;36277;32.852;-116.998;2023-01-13T09:21:55;100658.13;;;22.52
45701;BMP280;36277;32.852;-116.998;2023-01-13T09:24:24;100648.16;;;22.51
45701;BMP280;36277;32.852;-116.998;2023-01-13T09:26:54;100651.06;;;22.50
45701;BMP280;36277;32.852;-116.998;2023-01-13T09:29:24;100657.59;;;22.49
45701;BMP280;36277;32.852;-116.998;2023-01-13T09:31:53;100658.47;;;22.49
45701;BMP280;36277;32.852;-116.998;2023-01-13T09:34:19;100658.81;;;22.46
45701;BMP280;36277;32.852;-116.998;2023-01-13T09:37:06;100662.72;;;22.44
45701;BMP280;36277;32.852;-116.998;2023-01-13T09:39:33;100658.25;;;22.43
45701;BMP280;36277;32.852;-116.998;2023-01-13T09:42:16;100657.91;;;22.46
45701;BMP280;36277;32.852;-116.998;2023-01-13T09:48:17;100659.66;;;22.39
45701;BMP280;36277;32.852;-116.998;2023-01-13T09:51:09;100658.28;;;22.35
45701;BMP280;36277;32.852;-116.998;2023-01-13T09:53:51;100656.56;;;22.34
45701;BMP280;36277;32.852;-116.998;2023-01-13T09:56:21;100658.56;;;22.32
45701;BMP280;36277;32.852;-116.998;2023-01-13T09:58:48;100659.94;;;22.28
45701;BMP280;36277;32.852;-116.998;2023-01-13T10:01:39;100657.19;;;22.28
45701;BMP280;36277;32.852;-116.998;2023-01-13T10:04:11;100658.22;;;22.27
45701;BMP280;36277;32.852;-116.998;2023-01-13T10:06:39;100655.81;;;22.32
45701;BMP280;36277;32.852;-116.998;2023-01-13T10:09:15;100661.19;;;22.41
45701;BMP280;36277;32.852;-116.998;2023-01-13T10:11:54;100650.53;;;22.46
45701;BMP280;36277;32.852;-116.998;2023-01-13T10:14:56;100648.66;;;22.55
45701;BMP280;36277;32.852;-116.998;2023-01-13T10:17:32;100652.81;;;22.67
45701;BMP280;36277;32.852;-116.998;2023-01-13T10:20:16;100661.03;;;22.75
45701;BMP280;36277;32.852;-116.998;2023-01-13T10:28:29;100651.72;;;22.99
45701;BMP280;36277;32.852;-116.998;2023-01-13T10:30:56;100645.03;;;23.10
45701;BMP280;36277;32.852;-116.998;2023-01-13T10:33:27;100644.47;;;23.22
45701;BMP280;36277;32.852;-116.998;2023-01-13T10:36:01;100652.38;;;23.33
45701;BMP280;36277;32.852;-116.998;2023-01-13T10:38:45;100649.28;;;23.36
45701;BMP280;36277;32.852;-116.998;2023-01-13T10:43:42;100651.69;;;23.31
45701;BMP280;36277;32.852;-116.998;2023-01-13T10:46:11;100642.75;;;23.29
45701;BMP280;36277;32.852;-116.998;2023-01-13T10:53:55;100631.41;;;23.24
45701;BMP280;36277;32.852;-116.998;2023-01-13T10:56:24;100632.13;;;23.18
45701;BMP280;36277;32.852;-116.998;2023-01-13T10:58:51;100630.56;;;23.16
45701;BMP280;36277;32.852;-116.998;2023-01-13T11:01:26;100631.78;;;23.13
45701;BMP280;36277;32.852;-116.998;2023-01-13T11:03:55;100622.31;;;23.08
45701;BMP280;36277;32.852;-116.998;2023-01-13T11:06:27;100620.59;;;23.07
45701;BMP280;36277;32.852;-116.998;2023-01-13T11:08:57;100619.22;;;23.03
45701;BMP280;36277;32.852;-116.998;2023-01-13T11:11:42;100618.34;;;23.02
45701;BMP280;36277;32.852;-116.998;2023-01-13T11:20:21;100611.16;;;22.86
45701;BMP280;36277;32.852;-116.998;2023-01-13T11:22:55;100613.56;;;22.81
45701;BMP280;36277;32.852;-116.998;2023-01-13T11:25:40;100604.28;;;22.82
45701;BMP280;36277;32.852;-116.998;2023-01-13T11:31:07;100591.38;;;22.74
45701;BMP280;36277;32.852;-116.998;2023-01-13T11:33:43;100594.47;;;22.71
45701;BMP280;36277;32.852;-116.998;2023-01-13T11:38:52;100586.38;;;22.70
45701;BMP280;36277;32.852;-116.998;2023-01-13T11:41:45;100586.56;;;22.68
45701;BMP280;36277;32.852;-116.998;2023-01-13T11:44:42;100582.63;;;22.63
45701;BMP280;36277;32.852;-116.998;2023-01-13T11:47:12;100576.59;;;22.59
45701;BMP280;36277;32.852;-116.998;2023-01-13T11:49:39;100580.38;;;22.58
45701;BMP280;36277;32.852;-116.998;2023-01-13T12:02:52;100584.34;;;22.48
45701;BMP280;36277;32.852;-116.998;2023-01-13T12:05:54;100591.91;;;22.46
45701;BMP280;36277;32.852;-116.998;2023-01-13T12:14:06;100603.09;;;22.36
45701;BMP280;36277;32.852;-116.998;2023-01-13T12:16:41;100599.44;;;22.28
45701;BMP280;36277;32.852;-116.998;2023-01-13T12:25:04;100594.28;;;22.25
45701;BMP280;36277;32.852;-116.998;2023-01-13T12:33:39;100601.31;;;22.19
45701;BMP280;36277;32.852;-116.998;2023-01-13T12:39:20;100593.81;;;22.37
45701;BMP280;36277;32.852;-116.998;2023-01-13T12:52:48;100586.53;;;22.84
45701;BMP280;36277;32.852;-116.998;2023-01-13T12:55:18;100595.28;;;22.96
45701;BMP280;36277;32.852;-116.998;2023-01-13T13:06:13;100613.47;;;23.28
45701;BMP280;36277;32.852;-116.998;2023-01-13T13:09:04;100609.56;;;23.23
45701;BMP280;36277;32.852;-116.998;2023-01-13T13:11:40;100621.59;;;23.22
45701;BMP280;36277;32.852;-116.998;2023-01-13T13:19:58;100596.16;;;23.12
45701;BMP280;36277;32.852;-116.998;2023-01-13T13:30:42;100609.91;;;23.04
45701;BMP280;36277;32.852;-116.998;2023-01-13T13:41:25;100627.13;;;22.82
45701;BMP280;36277;32.852;-116.998;2023-01-13T13:47:02;100634.19;;;22.77
45701;BMP280;36277;32.852;-116.998;2023-01-13T13:49:37;100626.97;;;22.76
45701;BMP280;36277;32.852;-116.998;2023-01-13T13:52:30;100631.63;;;22.75
45701;BMP280;36277;32.852;-116.998;2023-01-13T13:55:18;100638.66;;;22.70
45701;BMP280;36277;32.852;-116.998;2023-01-13T13:57:51;100645.38;;;22.67
45701;BMP280;36277;32.852;-116.998;2023-01-13T14:00:31;100649.34;;;22.65
45701;BMP280;36277;32.852;-116.998;2023-01-13T14:03:18;100648.66;;;22.63
45701;BMP280;36277;32.852;-116.998;2023-01-13T14:06:01;100647.09;;;22.60
45701;BMP280;36277;32.852;-116.998;2023-01-13T14:08:35;100648.47;;;22.56
45701;BMP280;36277;32.852;-116.998;2023-01-13T14:11:28;100669.81;;;22.54
45701;BMP280;36277;32.852;-116.998;2023-01-13T14:14:12;100657.59;;;22.49
45701;BMP280;36277;32.852;-116.998;2023-01-13T14:16:42;100662.91;;;22.42
45701;BMP280;36277;32.852;-116.998;2023-01-13T14:19:32;100673.06;;;22.42
45701;BMP280;36277;32.852;-116.998;2023-01-13T14:22:00;100669.97;;;22.37
45701;BMP280;36277;32.852;-116.998;2023-01-13T14:24:35;100679.25;;;22.36
45701;BMP280;36277;32.852;-116.998;2023-01-13T14:27:15;100679.53;;;22.33
45701;BMP280;36277;32.852;-116.998;2023-01-13T14:29:47;100685.03;;;22.33
45701;BMP280;36277;32.852;-116.998;2023-01-13T14:32:17;100689.66;;;22.32
45701;BMP280;36277;32.852;-116.998;2023-01-13T14:34:45;100698.09;;;22.31
45701;BMP280;36277;32.852;-116.998;2023-01-13T14:37:29;100700.66;;;22.32
45701;BMP280;36277;32.852;-116.998;2023-01-13T14:39:57;100699.09;;;22.22
45701;BMP280;36277;32.852;-116.998;2023-01-13T14:42:24;100702.88;;;22.21
45701;BMP280;36277;32.852;-116.998;2023-01-13T14:44:52;100709.06;;;22.23
45701;BMP280;36277;32.852;-116.998;2023-01-13T14:47:23;100715.25;;;22.25
45701;BMP280;36277;32.852;-116.998;2023-01-13T14:49:52;100724.53;;;22.24
45701;BMP280;36277;32.852;-116.998;2023-01-13T14:52:25;100722.13;;;22.21
45701;BMP280;36277;32.852;-116.998;2023-01-13T14:57:30;100729.84;;;22.17
45701;BMP280;36277;32.852;-116.998;2023-01-13T15:05:29;100740.34;;;22.14
45701;BMP280;36277;32.852;-116.998;2023-01-13T15:11:00;100747.09;;;22.27
45701;BMP280;36277;32.852;-116.998;2023-01-13T15:13:37;100753.31;;;22.37
45701;BMP280;36277;32.852;-116.998;2023-01-13T15:16:20;100742.16;;;22.47
45701;BMP280;36277;32.852;-116.998;2023-01-13T15:18:47;100742.88;;;22.57
45701;BMP280;36277;32.852;-116.998;2023-01-13T15:21:14;100755.44;;;22.67
45701;BMP280;36277;32.852;-116.998;2023-01-13T15:23:41;100751.50;;;22.78
45701;BMP280;36277;32.852;-116.998;2023-01-13T15:28:49;100754.09;;;22.95
45701;BMP280;36277;32.852;-116.998;2023-01-13T15:31:16;100733.63;;;23.05
45701;BMP280;36277;32.852;-116.998;2023-01-13T15:33:43;100729.69;;;23.16
45701;BMP280;36277;32.852;-116.998;2023-01-13T15:36:29;100741.06;;;23.29
45701;BMP280;36277;32.852;-116.998;2023-01-13T15:38:57;100748.94;;;23.32
45701;BMP280;36277;32.852;-116.998;2023-01-13T15:41:24;100752.56;;;23.32
45701;BMP280;36277;32.852;-116.998;2023-01-13T15:44:11;100761.19;;;23.29
45701;BMP280;36277;32.852;-116.998;2023-01-13T15:46:56;100765.84;;;23.21
45701;BMP280;36277;32.852;-116.998;2023-01-13T15:49:37;100764.28;;;23.26
45701;BMP280;36277;32.852;-116.998;2023-01-13T15:52:32;100762.91;;;23.22
45701;BMP280;36277;32.852;-116.998;2023-01-13T15:54:57;100774.44;;;23.18
45701;BMP280;36277;32.852;-116.998;2023-01-13T15:57:28;100770.13;;;23.23
45701;BMP280;36277;32.852;-116.998;2023-01-13T15:59:57;100767.56;;;23.22
45701;BMP280;36277;32.852;-116.998;2023-01-13T16:02:25;100776.34;;;23.17
45701;BMP280;36277;32.852;-116.998;2023-01-13T16:04:52;100775.47;;;23.17
45701;BMP280;36277;32.852;-116.998;2023-01-13T16:07:23;100781.88;;;23.17
45701;BMP280;36277;32.852;-116.998;2023-01-13T16:09:50;100782.19;;;23.14
45701;BMP280;36277;32.852;-116.998;2023-01-13T16:12:16;100779.78;;;23.11
45701;BMP280;36277;32.852;-116.998;2023-01-13T16:14:43;100776.50;;;23.08
45701;BMP280;36277;32.852;-116.998;2023-01-13T16:17:17;100777.38;;;23.08
45701;BMP280;36277;32.852;-116.998;2023-01-13T16:19:45;100785.09;;;23.05
45701;BMP280;36277;32.852;-116.998;2023-01-13T16:22:12;100796.25;;;23.03
45701;BMP280;36277;32.852;-116.998;2023-01-13T16:24:39;100800.03;;;23.02
45701;BMP280;36277;32.852;-116.998;2023-01-13T16:27:23;100792.66;;;23.03
45701;BMP280;36277;32.852;-116.998;2023-01-13T16:29:51;100789.72;;;22.97
45701;BMP280;36277;32.852;-116.998;2023-01-13T16:32:17;100790.75;;;22.96
45701;BMP280;36277;32.852;-116.998;2023-01-13T16:34:45;100799.38;;;22.93
45701;BMP280;36277;32.852;-116.998;2023-01-13T16:37:21;100796.75;;;22.91
45701;BMP280;36277;32.852;-116.998;2023-01-13T16:39:48;100806.72;;;22.84